createdAt,value
2023-02-11T00:00:36.296Z,39.4
2023-02-11T00:02:19.693Z,39.4
2023-02-11T00:04:03.112Z,39.4
2023-02-11T00:09:12.344Z,39.4
2023-02-11T00:10:55.728Z,39.4
2023-02-11T00:12:39.148Z,39.4
2023-02-11T00:14:22.515Z,39.4
2023-02-11T00:16:05.943Z,39.4
2023-02-11T00:17:49.311Z,39.4
2023-02-11T00:19:32.721Z,39.4
2023-02-11T00:21:16.124Z,39.4
2023-02-11T00:22:59.494Z,39.4
2023-02-11T00:26:25.983Z,39.3
2023-02-11T00:28:09.386Z,39.3
2023-02-11T00:29:52.773Z,39.3
2023-02-11T00:31:36.157Z,39.3
2023-02-11T00:33:19.580Z,39.3
2023-02-11T00:35:02.993Z,39.3
2023-02-11T00:36:46.366Z,39.3
2023-02-11T00:38:29.750Z,39.3
2023-02-11T00:40:13.156Z,39.3
2023-02-11T00:45:22.398Z,39.3
2023-02-11T00:47:05.788Z,39.3
2023-02-11T00:48:49.193Z,39.2
2023-02-11T00:50:32.598Z,38.5
2023-02-11T00:52:15.987Z,37
2023-02-11T00:53:59.398Z,36
2023-02-11T00:55:42.764Z,35.3
2023-02-11T00:57:26.188Z,34.6
2023-02-11T00:59:09.777Z,33.6
2023-02-11T01:02:36.023Z,30.3
2023-02-11T01:04:19.428Z,30.7
2023-02-11T01:06:02.844Z,31.5
2023-02-11T01:07:46.224Z,32.1
2023-02-11T01:09:29.609Z,32.2
2023-02-11T01:11:13.036Z,32.4
2023-02-11T01:12:56.420Z,32.6
2023-02-11T01:14:39.835Z,32.8
2023-02-11T01:16:23.206Z,33.1
2023-02-11T01:21:32.442Z,33.8
2023-02-11T01:23:15.844Z,34
2023-02-11T01:24:59.250Z,34.1
2023-02-11T01:26:42.638Z,34.3
2023-02-11T01:28:26.031Z,34.4
2023-02-11T01:30:09.459Z,34.5
2023-02-11T01:31:52.824Z,34.7
2023-02-11T01:33:36.214Z,34.8
2023-02-11T01:35:19.607Z,34.9
2023-02-11T01:42:11.616Z,35.2
2023-02-11T01:43:55.068Z,35.3
2023-02-11T01:45:38.414Z,35.4
2023-02-11T01:50:48.614Z,35.5
2023-02-11T01:52:32.001Z,35.6
2023-02-11T01:54:15.437Z,35.6
2023-02-11T01:55:58.803Z,35.7
2023-02-11T02:01:08.048Z,35.8
2023-02-11T02:02:51.480Z,35.9
2023-02-11T02:04:34.837Z,35.9
2023-02-11T02:06:18.228Z,36
2023-02-11T02:08:01.618Z,36
2023-02-11T02:09:45.009Z,36.1
2023-02-11T02:11:28.407Z,36.1
2023-02-11T02:13:11.859Z,36.1
2023-02-11T02:14:55.214Z,36.2
2023-02-11T02:18:21.690Z,36.3
2023-02-11T02:20:05.066Z,36.3
2023-02-11T02:21:48.465Z,36.3
2023-02-11T02:23:31.878Z,36.4
2023-02-11T02:25:15.282Z,36.4
2023-02-11T02:26:58.667Z,36.4
2023-02-11T02:28:42.079Z,36.5
2023-02-11T02:30:25.455Z,36.5
2023-02-11T02:32:08.848Z,36.5
2023-02-11T02:35:35.377Z,36.6
2023-02-11T02:37:18.701Z,36.6
2023-02-11T02:39:02.124Z,36.6
2023-02-11T02:40:45.511Z,36.7
2023-02-11T02:42:28.908Z,36.7
2023-02-11T02:44:12.335Z,36.8
2023-02-11T02:45:55.693Z,36.8
2023-02-11T02:47:39.097Z,36.8
2023-02-11T02:49:22.521Z,36.9
2023-02-11T02:52:48.972Z,36.9
2023-02-11T02:54:32.367Z,36.9
2023-02-11T02:56:15.752Z,37
2023-02-11T02:57:59.167Z,37
2023-02-11T02:59:42.562Z,37
2023-02-11T03:01:25.958Z,37
2023-02-11T03:03:09.352Z,37
2023-02-11T03:04:52.741Z,37.1
2023-02-11T03:06:36.140Z,37.1
2023-02-11T03:10:02.613Z,37.1
2023-02-11T03:11:46.026Z,37.2
2023-02-11T03:13:29.460Z,37.2
2023-02-11T03:15:12.790Z,37.2
2023-02-11T03:16:56.209Z,37.2
2023-02-11T03:18:39.592Z,37.2
2023-02-11T03:20:22.984Z,37.2
2023-02-11T03:22:06.379Z,37.4
2023-02-11T03:23:49.780Z,37.6
2023-02-11T03:27:16.252Z,37.8
2023-02-11T03:28:59.649Z,38
2023-02-11T03:30:43.041Z,38.1
2023-02-11T03:32:26.438Z,38.2
2023-02-11T03:34:09.836Z,38.3
2023-02-11T03:35:53.244Z,38.5
2023-02-11T03:37:36.647Z,38.6
2023-02-11T03:39:20.030Z,38.6
2023-02-11T03:41:03.422Z,38.6
2023-02-11T03:46:12.656Z,38.7
2023-02-11T03:47:56.066Z,38.7
2023-02-11T03:49:39.463Z,38.6
2023-02-11T03:51:22.851Z,38.7
2023-02-11T03:53:06.249Z,38.6
2023-02-11T03:54:49.635Z,38.6
2023-02-11T03:56:33.033Z,38.6
2023-02-11T03:58:16.422Z,38.6
2023-02-11T03:59:59.829Z,38.6
2023-02-11T04:03:26.309Z,38.6
2023-02-11T04:05:09.702Z,38.6
2023-02-11T04:06:53.093Z,38.6
2023-02-11T04:08:36.481Z,38.7
2023-02-11T04:10:19.879Z,38.7
2023-02-11T04:12:03.286Z,38.7
2023-02-11T04:13:46.668Z,38.7
2023-02-11T04:15:30.075Z,38.6
2023-02-11T04:17:13.517Z,38.6
2023-02-11T04:18:57.184Z,38.6
2023-02-11T04:20:40.566Z,38.7
2023-02-11T04:22:23.977Z,38.7
2023-02-11T04:24:07.367Z,38.7
2023-02-11T04:25:50.750Z,38.7
2023-02-11T04:27:34.143Z,38.7
2023-02-11T04:29:17.560Z,38.7
2023-02-11T04:31:00.937Z,38.7
2023-02-11T04:32:44.344Z,38.6
2023-02-11T04:36:10.822Z,38.7
2023-02-11T04:37:54.211Z,38.6
2023-02-11T04:39:37.601Z,38.6
2023-02-11T04:41:21.016Z,38.6
2023-02-11T04:43:04.398Z,38.6
2023-02-11T04:44:47.796Z,38.6
2023-02-11T04:46:31.201Z,38.6
2023-02-11T04:48:14.588Z,38.6
2023-02-11T04:49:57.992Z,38.6
2023-02-11T04:53:24.462Z,38.6
2023-02-11T04:55:07.851Z,38.6
2023-02-11T04:56:51.242Z,38.6
2023-02-11T04:58:34.651Z,38.6
2023-02-11T05:00:18.036Z,38.6
2023-02-11T05:02:01.446Z,38.6
2023-02-11T05:03:44.823Z,38.6
2023-02-11T05:05:28.242Z,38.6
2023-02-11T05:07:11.628Z,38.6
2023-02-11T05:08:55.332Z,38.6
2023-02-11T05:10:38.729Z,38.6
2023-02-11T05:12:22.124Z,38.6
2023-02-11T05:14:05.518Z,38.6
2023-02-11T05:15:48.911Z,38.6
2023-02-11T05:17:32.314Z,38.6
2023-02-11T05:19:15.703Z,38.6
2023-02-11T05:20:59.101Z,38.6
2023-02-11T05:26:08.364Z,38.6
2023-02-11T05:27:51.759Z,38.6
2023-02-11T05:29:35.135Z,38.6
2023-02-11T05:31:18.532Z,38.6
2023-02-11T05:33:01.926Z,38.6
2023-02-11T05:34:45.313Z,38.6
2023-02-11T05:36:28.723Z,38.6
2023-02-11T05:38:12.121Z,38.6
2023-02-11T05:39:55.523Z,38.6
2023-02-11T05:41:39.205Z,38.6
2023-02-11T05:43:22.608Z,38.6
2023-02-11T05:45:06.008Z,38.6
2023-02-11T05:46:49.399Z,38.6
2023-02-11T05:48:32.802Z,38.6
2023-02-11T05:50:16.205Z,38.6
2023-02-11T05:51:59.616Z,38.6
2023-02-11T05:53:42.985Z,38.6
2023-02-11T05:55:26.381Z,38.6
2023-02-11T05:58:52.855Z,38.6
2023-02-11T06:00:36.248Z,38.6
2023-02-11T06:02:19.656Z,38.6
2023-02-11T06:04:03.058Z,38.6
2023-02-11T06:05:46.426Z,38.6
2023-02-11T06:07:29.882Z,38.6
2023-02-11T06:09:13.235Z,38.6
2023-02-11T06:10:56.646Z,38.6
2023-02-11T06:12:40.031Z,38.6
2023-02-11T06:17:49.272Z,38.6
2023-02-11T06:19:32.658Z,38.6
2023-02-11T06:21:16.091Z,38.6
2023-02-11T06:22:59.475Z,38.6
2023-02-11T06:24:42.848Z,38.7
2023-02-11T06:26:26.244Z,38.6
2023-02-11T06:28:09.658Z,38.6
2023-02-11T06:29:53.057Z,38.6
2023-02-11T06:31:36.451Z,38.6
2023-02-11T06:35:02.958Z,38.6
2023-02-11T06:36:46.294Z,38.6
2023-02-11T06:38:29.716Z,38.6
2023-02-11T06:40:13.125Z,38.6
2023-02-11T06:41:56.587Z,38.6
2023-02-11T06:43:39.892Z,38.6
2023-02-11T06:45:23.297Z,38.6
2023-02-11T06:47:06.700Z,38.6
2023-02-11T06:48:50.138Z,38.6
2023-02-11T06:52:16.576Z,38.5
2023-02-11T06:53:59.947Z,38.5
2023-02-11T06:55:43.339Z,38.5
2023-02-11T06:57:26.776Z,38.5
2023-02-11T06:59:10.145Z,38.5
2023-02-11T07:00:53.541Z,38.5
2023-02-11T07:02:36.927Z,38.5
2023-02-11T07:04:20.329Z,38.5
2023-02-11T07:06:03.721Z,38.5
2023-02-11T07:09:30.238Z,38.4
2023-02-11T07:11:13.590Z,38.4
2023-02-11T07:12:56.998Z,38.4
2023-02-11T07:14:40.386Z,38.4
2023-02-11T07:16:23.774Z,38.4
2023-02-11T07:18:07.177Z,38.4
2023-02-11T07:19:50.586Z,38.3
2023-02-11T07:21:33.978Z,38.3
2023-02-11T07:23:17.363Z,38.3
2023-02-11T07:26:43.831Z,38.3
2023-02-11T07:28:27.234Z,38.3
2023-02-11T07:30:10.629Z,38.3
2023-02-11T07:31:54.040Z,38.2
2023-02-11T07:33:37.433Z,38.2
2023-02-11T07:35:20.827Z,38.2
2023-02-11T07:37:04.232Z,38.2
2023-02-11T07:38:47.608Z,38.2
2023-02-11T07:43:56.838Z,38.1
2023-02-11T07:45:40.249Z,38.1
2023-02-11T07:47:23.664Z,38.1
2023-02-11T07:49:07.034Z,38.1
2023-02-11T07:50:50.445Z,38.1
2023-02-11T07:52:33.859Z,38.3
2023-02-11T07:54:17.212Z,38.4
2023-02-11T07:56:00.608Z,38.5
2023-02-11T07:57:44.313Z,38.6
2023-02-11T07:59:27.706Z,38.6
2023-02-11T08:01:11.117Z,38.7
2023-02-11T08:02:54.505Z,38.8
2023-02-11T08:04:37.917Z,38.6
2023-02-11T08:06:21.337Z,38.6
2023-02-11T08:08:04.691Z,38.7
2023-02-11T08:09:48.107Z,38.8
2023-02-11T08:14:57.337Z,39.4
2023-02-11T08:16:40.767Z,39.4
2023-02-11T08:18:24.137Z,39.5
2023-02-11T08:20:07.517Z,39.6
2023-02-11T08:21:50.977Z,39.6
2023-02-11T08:23:34.325Z,39.7
2023-02-11T08:25:17.715Z,39.7
2023-02-11T08:27:01.199Z,39.7
2023-02-11T08:32:10.342Z,39.6
2023-02-11T08:33:53.755Z,39.7
2023-02-11T08:35:37.138Z,39.7
2023-02-11T08:37:20.541Z,39.7
2023-02-11T08:39:03.945Z,39.7
2023-02-11T08:40:47.339Z,39.6
2023-02-11T08:42:30.725Z,39.6
2023-02-11T08:44:14.126Z,39.3
2023-02-11T08:49:23.422Z,39.3
2023-02-11T08:51:06.760Z,39.3
2023-02-11T08:52:50.160Z,39.4
2023-02-11T08:54:33.559Z,39.4
2023-02-11T08:56:16.949Z,39.7
2023-02-11T08:58:00.392Z,39.5
2023-02-11T08:59:43.737Z,39.3
2023-02-11T09:01:27.152Z,39.5
2023-02-11T09:04:53.622Z,39.6
2023-02-11T09:06:36.996Z,39.6
2023-02-11T09:08:20.410Z,39.5
2023-02-11T09:10:03.791Z,39.5
2023-02-11T09:11:47.186Z,39.5
2023-02-11T09:13:30.580Z,39.5
2023-02-11T09:15:13.996Z,39.8
2023-02-11T09:16:57.411Z,40.1
2023-02-11T09:22:06.635Z,39.9
2023-02-11T09:23:50.059Z,40.1
2023-02-11T09:25:33.424Z,40.3
2023-02-11T09:27:16.811Z,40.2
2023-02-11T09:29:00.239Z,40.2
2023-02-11T09:30:43.607Z,39.8
2023-02-11T09:32:27.059Z,39.8
2023-02-11T09:34:10.408Z,39.8
2023-02-11T09:37:36.880Z,39.8
2023-02-11T09:39:20.268Z,39.9
2023-02-11T09:41:03.667Z,39.9
2023-02-11T09:42:47.059Z,39.8
2023-02-11T09:44:30.514Z,39.9
2023-02-11T09:46:13.862Z,39.9
2023-02-11T09:47:57.264Z,39.9
2023-02-11T09:49:40.657Z,39.9
2023-02-11T09:53:07.212Z,39.5
2023-02-11T09:54:50.544Z,39.5
2023-02-11T09:56:33.917Z,39.7
2023-02-11T09:58:17.316Z,39.8
2023-02-11T10:00:00.830Z,39.7
2023-02-11T10:01:44.105Z,39.8
2023-02-11T10:03:27.503Z,39.9
2023-02-11T10:05:10.901Z,39.8
2023-02-11T10:08:37.397Z,40.1
2023-02-11T10:10:20.773Z,40.1
2023-02-11T10:12:04.181Z,40.2
2023-02-11T10:13:47.574Z,40.5
2023-02-11T10:15:30.977Z,40.3
2023-02-11T10:17:14.363Z,40.2
2023-02-11T10:18:57.760Z,40.5
2023-02-11T10:20:41.148Z,40.4
2023-02-11T10:24:07.629Z,39.8
2023-02-11T10:25:51.025Z,39.4
2023-02-11T10:27:34.478Z,39.4
2023-02-11T10:29:17.819Z,39.3
2023-02-11T10:31:01.237Z,39.3
2023-02-11T10:32:44.619Z,39.8
2023-02-11T10:34:28.022Z,39.7
2023-02-11T10:36:11.451Z,39.7
2023-02-11T10:39:37.877Z,40.3
2023-02-11T10:41:21.303Z,40.2
2023-02-11T10:43:04.674Z,40.1
2023-02-11T10:44:48.068Z,40.3
2023-02-11T10:46:31.460Z,40.4
2023-02-11T10:48:14.945Z,40.3
2023-02-11T10:49:58.262Z,40.3
2023-02-11T10:51:44.142Z,40.4
2023-02-11T10:55:08.136Z,40.1
2023-02-11T10:56:51.523Z,40
2023-02-11T10:58:34.941Z,39.9
2023-02-11T11:00:18.327Z,39.4
2023-02-11T11:02:01.757Z,39.5
2023-02-11T11:03:45.212Z,39.4
2023-02-11T11:05:28.696Z,39.4
2023-02-11T11:07:12.071Z,39.3
2023-02-11T11:10:38.510Z,39.3
2023-02-11T11:12:21.916Z,39.3
2023-02-11T11:14:05.317Z,39.3
2023-02-11T11:15:48.904Z,39.3
2023-02-11T11:17:32.155Z,39.3
2023-02-11T11:19:15.539Z,39.3
2023-02-11T11:20:58.971Z,39.2
2023-02-11T11:22:42.161Z,39.2
2023-02-11T11:27:51.427Z,39.2
2023-02-11T11:29:34.818Z,39.2
2023-02-11T11:31:18.258Z,39.2
2023-02-11T11:33:01.629Z,39.3
2023-02-11T11:34:44.989Z,39.4
2023-02-11T11:36:28.399Z,39.6
2023-02-11T11:38:11.777Z,40.1
2023-02-11T11:39:55.214Z,40.2
2023-02-11T11:43:21.660Z,40.3
2023-02-11T11:45:05.053Z,40.2
2023-02-11T11:46:48.438Z,40.5
2023-02-11T11:48:31.827Z,40.5
2023-02-11T11:50:15.231Z,40.4
2023-02-11T11:51:58.622Z,40.4
2023-02-11T11:53:42.017Z,40.5
2023-02-11T11:55:25.421Z,40.6
2023-02-11T11:58:51.888Z,40.4
2023-02-11T12:00:35.306Z,40.3
2023-02-11T12:02:18.674Z,40.5
2023-02-11T12:04:02.117Z,40.5
2023-02-11T12:05:45.526Z,40.7
2023-02-11T12:07:28.903Z,40.4
2023-02-11T12:09:12.273Z,40.3
2023-02-11T12:10:55.692Z,40.4
2023-02-11T12:14:22.146Z,40.9
2023-02-11T12:16:05.554Z,41
2023-02-11T12:17:48.923Z,40.8
2023-02-11T12:19:32.336Z,41
2023-02-11T12:21:15.720Z,40.8
2023-02-11T12:22:59.179Z,40.7
2023-02-11T12:24:42.555Z,41
2023-02-11T12:26:25.904Z,41.2
2023-02-11T12:29:52.389Z,40.9
2023-02-11T12:31:35.796Z,41
2023-02-11T12:33:19.176Z,41.1
2023-02-11T12:35:02.585Z,40.9
2023-02-11T12:36:45.986Z,40.9
2023-02-11T12:38:29.381Z,41.2
2023-02-11T12:40:12.776Z,41.6
2023-02-11T12:45:22.002Z,41.2
2023-02-11T12:47:05.417Z,41.4
2023-02-11T12:48:48.805Z,41.4
2023-02-11T12:50:32.208Z,41.3
2023-02-11T12:52:15.596Z,41.4
2023-02-11T12:53:58.997Z,41.6
2023-02-11T12:55:42.390Z,42
2023-02-11T12:57:25.781Z,41.7
2023-02-11T12:59:09.491Z,41.6
2023-02-11T13:00:52.891Z,41.7
2023-02-11T13:02:36.300Z,41.6
2023-02-11T13:04:19.741Z,41.5
2023-02-11T13:06:03.074Z,41.6
2023-02-11T13:07:46.483Z,41.7
2023-02-11T13:09:29.867Z,41.5
2023-02-11T13:11:13.277Z,41.5
2023-02-11T13:16:22.541Z,41.7
2023-02-11T13:18:05.912Z,41.7
2023-02-11T13:19:49.312Z,41.7
2023-02-11T13:21:32.708Z,41.7
2023-02-11T13:23:16.103Z,41.6
2023-02-11T13:24:59.492Z,41.6
2023-02-11T13:26:42.888Z,41.6
2023-02-11T13:28:26.295Z,41.5
2023-02-11T13:30:10.142Z,41.5
2023-02-11T13:31:53.384Z,41.5
2023-02-11T13:33:36.776Z,41.5
2023-02-11T13:35:20.179Z,41.4
2023-02-11T13:37:03.574Z,41.4
2023-02-11T13:38:46.967Z,41.4
2023-02-11T13:40:30.360Z,41.4
2023-02-11T13:42:13.741Z,41.4
2023-02-11T13:45:40.222Z,41.4
2023-02-11T13:47:23.631Z,41.4
2023-02-11T13:49:07.061Z,41.4
2023-02-11T13:50:50.415Z,41.4
2023-02-11T13:52:33.860Z,41.4
2023-02-11T13:54:17.191Z,41.4
2023-02-11T13:56:00.673Z,41.4
2023-02-11T13:57:44.007Z,41.4
2023-02-11T14:02:53.246Z,41.3
2023-02-11T14:04:36.648Z,41.3
2023-02-11T14:06:20.034Z,41.3
2023-02-11T14:08:03.422Z,41.3
2023-02-11T14:09:46.817Z,41.3
2023-02-11T14:11:30.236Z,41.3
2023-02-11T14:13:13.613Z,41.3
2023-02-11T14:14:57.020Z,41.3
2023-02-11T14:20:06.306Z,41.3
2023-02-11T14:21:49.654Z,41.3
2023-02-11T14:23:33.064Z,41.4
2023-02-11T14:25:16.466Z,40.4
2023-02-11T14:26:59.857Z,38.4
2023-02-11T14:28:43.264Z,37.6
2023-02-11T14:30:26.636Z,37.6
2023-02-11T14:32:10.045Z,38.2
2023-02-11T14:37:19.342Z,37.9
2023-02-11T14:39:02.676Z,38
2023-02-11T14:40:46.079Z,38.1
2023-02-11T14:42:29.490Z,38.2
2023-02-11T14:44:12.871Z,38.3
2023-02-11T14:45:56.252Z,38.4
2023-02-11T14:47:39.643Z,38.6
2023-02-11T14:49:23.046Z,38.7
2023-02-11T14:52:49.530Z,39
2023-02-11T14:54:32.936Z,39
2023-02-11T14:56:16.300Z,39.1
2023-02-11T14:57:59.700Z,39.2
2023-02-11T14:59:43.118Z,39.4
2023-02-11T15:01:26.513Z,39.4
2023-02-11T15:03:09.913Z,39.5
2023-02-11T15:04:53.297Z,39.5
2023-02-11T15:08:19.767Z,39.5
2023-02-11T15:10:03.153Z,39.5
2023-02-11T15:11:46.578Z,39.6
2023-02-11T15:13:29.945Z,39.8
2023-02-11T15:15:13.355Z,40
2023-02-11T15:16:56.744Z,39.9
2023-02-11T15:18:40.126Z,39.9
2023-02-11T15:20:23.522Z,40
2023-02-11T15:25:32.781Z,40.1
2023-02-11T15:27:16.182Z,40.1
2023-02-11T15:28:59.579Z,40.1
2023-02-11T15:30:42.993Z,40.1
2023-02-11T15:32:26.371Z,40.1
2023-02-11T15:34:09.773Z,40.1
2023-02-11T15:35:53.160Z,40.1
2023-02-11T15:37:36.571Z,40.1
2023-02-11T15:42:45.790Z,40.2
2023-02-11T15:44:29.203Z,40.2
2023-02-11T15:46:12.572Z,40.3
2023-02-11T15:47:55.994Z,40.3
2023-02-11T15:49:39.388Z,40.3
2023-02-11T15:51:22.767Z,40.3
2023-02-11T15:53:06.183Z,40.3
2023-02-11T15:54:49.623Z,40.3
2023-02-11T15:56:33.040Z,40.4
2023-02-11T15:58:16.670Z,40.4
2023-02-11T16:00:00.066Z,40.4
2023-02-11T16:01:43.522Z,40.4
2023-02-11T16:03:26.873Z,40.4
2023-02-11T16:05:10.251Z,40.4
2023-02-11T16:06:53.690Z,40.4
2023-02-11T16:08:37.041Z,40.4
2023-02-11T16:10:20.435Z,40.5
2023-02-11T16:15:29.672Z,40.5
2023-02-11T16:17:13.062Z,40.5
2023-02-11T16:18:56.494Z,40.5
2023-02-11T16:20:39.855Z,40.5
2023-02-11T16:22:23.258Z,40.5
2023-02-11T16:24:06.667Z,40.6
2023-02-11T16:25:50.047Z,40.6
2023-02-11T16:27:33.457Z,40.6
2023-02-11T16:30:59.923Z,40.7
2023-02-11T16:32:43.330Z,40.7
2023-02-11T16:34:26.784Z,40.7
2023-02-11T16:36:10.122Z,40.5
2023-02-11T16:37:53.498Z,40.6
2023-02-11T16:39:36.909Z,40.7
2023-02-11T16:41:20.370Z,40.8
2023-02-11T16:43:03.716Z,40.9
2023-02-11T16:46:30.173Z,41.3
2023-02-11T16:48:13.597Z,41.3
2023-02-11T16:49:56.993Z,41.4
2023-02-11T16:51:40.363Z,41.4
2023-02-11T16:53:23.753Z,41.5
2023-02-11T16:55:07.196Z,41.5
2023-02-11T16:56:50.542Z,41.5
2023-02-11T16:58:33.950Z,41.7
2023-02-11T17:03:43.183Z,41.9
2023-02-11T17:05:26.570Z,41.9
2023-02-11T17:07:09.971Z,42
2023-02-11T17:08:53.403Z,42.1
2023-02-11T17:10:36.770Z,42.2
2023-02-11T17:12:20.154Z,42.2
2023-02-11T17:14:03.559Z,42.3
2023-02-11T17:15:46.945Z,42.3
2023-02-11T17:20:56.193Z,42.5
2023-02-11T17:22:39.582Z,42.6
2023-02-11T17:24:22.995Z,42.7
2023-02-11T17:26:06.375Z,42.7
2023-02-11T17:27:49.775Z,42.9
2023-02-11T17:29:33.165Z,43.1
2023-02-11T17:31:16.598Z,43.2
2023-02-11T17:32:59.962Z,43.5
2023-02-11T17:38:09.200Z,43.6
2023-02-11T17:39:52.614Z,43.6
2023-02-11T17:41:36.025Z,43.5
2023-02-11T17:43:19.406Z,43.6
2023-02-11T17:45:02.784Z,43.7
2023-02-11T17:46:46.181Z,43.8
2023-02-11T17:48:29.592Z,43.9
2023-02-11T17:50:12.984Z,43.9
2023-02-11T17:53:39.460Z,43.8
2023-02-11T17:55:22.845Z,43.7
2023-02-11T17:57:06.248Z,43.7
2023-02-11T17:58:49.661Z,43.7
2023-02-11T18:00:33.051Z,43.6
2023-02-11T18:02:16.463Z,43.7
2023-02-11T18:03:59.827Z,43.7
2023-02-11T18:05:43.237Z,43.7
2023-02-11T18:10:52.472Z,43.9
2023-02-11T18:12:35.883Z,43.9
2023-02-11T18:14:19.275Z,43.9
2023-02-11T18:16:02.719Z,43.9
2023-02-11T18:17:46.069Z,44
2023-02-11T18:19:29.529Z,44
2023-02-11T18:21:12.861Z,44
2023-02-11T18:22:56.264Z,43.9
2023-02-11T18:24:39.665Z,43.7
2023-02-11T18:26:23.338Z,43.5
2023-02-11T18:28:06.751Z,43.4
2023-02-11T18:29:50.144Z,43.3
2023-02-11T18:31:33.543Z,43.2
2023-02-11T18:33:16.942Z,43.1
2023-02-11T18:35:00.356Z,43.1
2023-02-11T18:36:43.743Z,43.1
2023-02-11T18:38:27.132Z,43
2023-02-11T18:40:10.540Z,43
2023-02-11T18:41:54.271Z,43
2023-02-11T18:43:37.636Z,43
2023-02-11T18:45:21.037Z,43
2023-02-11T18:47:04.418Z,43
2023-02-11T18:48:47.820Z,43
2023-02-11T18:50:31.202Z,42.9
2023-02-11T18:52:14.610Z,43
2023-02-11T18:53:58.021Z,43
2023-02-11T18:59:07.250Z,43
2023-02-11T19:00:50.637Z,43
2023-02-11T19:02:34.081Z,42.9
2023-02-11T19:04:17.562Z,42.9
2023-02-11T19:06:00.836Z,43
2023-02-11T19:07:44.236Z,42.9
2023-02-11T19:09:27.625Z,43
2023-02-11T19:11:11.090Z,43
2023-02-11T19:16:20.262Z,43
2023-02-11T19:18:03.687Z,43
2023-02-11T19:19:47.066Z,43
2023-02-11T19:21:30.469Z,43
2023-02-11T19:23:13.844Z,43
2023-02-11T19:24:57.278Z,43.1
2023-02-11T19:26:40.653Z,43.4
2023-02-11T19:28:24.051Z,43.3
2023-02-11T19:33:33.290Z,43.1
2023-02-11T19:35:16.685Z,43.1
2023-02-11T19:37:00.073Z,43.1
2023-02-11T19:38:43.478Z,43.2
2023-02-11T19:40:26.941Z,43.3
2023-02-11T19:42:10.260Z,43.4
2023-02-11T19:43:53.671Z,43.4
2023-02-11T19:45:37.069Z,43.5
2023-02-11T19:49:03.538Z,43.5
2023-02-11T19:50:46.961Z,43.5
2023-02-11T19:52:30.347Z,43.6
2023-02-11T19:54:13.739Z,43.6
2023-02-11T19:55:57.129Z,43.6
2023-02-11T19:57:40.521Z,43.7
2023-02-11T19:59:23.924Z,43.7
2023-02-11T20:01:07.386Z,43.7
2023-02-11T20:02:50.724Z,43.7
2023-02-11T20:06:17.201Z,43.7
2023-02-11T20:08:00.582Z,43.7
2023-02-11T20:09:43.995Z,43.7
2023-02-11T20:11:27.367Z,43.8
2023-02-11T20:13:10.775Z,43.7
2023-02-11T20:14:54.176Z,43.8
2023-02-11T20:16:37.571Z,43.8
2023-02-11T20:18:20.949Z,43.8
2023-02-11T20:23:30.201Z,43.8
2023-02-11T20:25:13.640Z,43.8
2023-02-11T20:26:57.010Z,43.8
2023-02-11T20:28:40.412Z,43.8
2023-02-11T20:30:23.783Z,43.8
2023-02-11T20:32:07.200Z,43.8
2023-02-11T20:33:50.559Z,43.8
2023-02-11T20:35:33.985Z,43.9
2023-02-11T20:40:43.226Z,43.9
2023-02-11T20:42:26.620Z,43.9
2023-02-11T20:44:10.006Z,43.9
2023-02-11T20:45:53.496Z,43.9
2023-02-11T20:47:36.797Z,43.9
2023-02-11T20:49:20.240Z,43.8
2023-02-11T20:51:03.586Z,43.8
2023-02-11T20:52:46.985Z,43.9
2023-02-11T20:54:30.395Z,43.9
2023-02-11T20:57:56.858Z,43.9
2023-02-11T20:59:40.306Z,43.9
2023-02-11T21:01:23.661Z,43.9
2023-02-11T21:03:07.041Z,43.9
2023-02-11T21:04:50.446Z,43.9
2023-02-11T21:06:33.872Z,43.9
2023-02-11T21:08:17.259Z,43.9
2023-02-11T21:10:00.728Z,44
2023-02-11T21:15:09.872Z,43.8
2023-02-11T21:16:53.274Z,43.9
2023-02-11T21:18:36.676Z,43.9
2023-02-11T21:20:20.127Z,44
2023-02-11T21:22:03.475Z,44
2023-02-11T21:23:46.865Z,44
2023-02-11T21:25:30.253Z,44
2023-02-11T21:27:13.674Z,44
2023-02-11T21:30:40.141Z,43.9
2023-02-11T21:32:23.521Z,43.9
2023-02-11T21:34:06.922Z,43.9
2023-02-11T21:35:50.385Z,43.9
2023-02-11T21:37:33.734Z,43.9
2023-02-11T21:39:17.149Z,44
2023-02-11T21:41:00.572Z,44
2023-02-11T21:42:43.922Z,44
2023-02-11T21:47:53.161Z,44
2023-02-11T21:49:36.627Z,44
2023-02-11T21:51:19.976Z,43.9
2023-02-11T21:53:03.349Z,43.9
2023-02-11T21:54:46.741Z,43.9
2023-02-11T21:56:30.128Z,43.9
2023-02-11T21:58:13.524Z,43.9
2023-02-11T21:59:56.928Z,43.9
2023-02-11T22:01:40.317Z,43.8
2023-02-11T22:05:06.787Z,43.8
2023-02-11T22:06:50.188Z,43.8
2023-02-11T22:08:33.580Z,43.8
2023-02-11T22:10:16.986Z,43.8
2023-02-11T22:12:00.464Z,43.8
2023-02-11T22:13:43.787Z,43.9
2023-02-11T22:15:27.164Z,43.9
2023-02-11T22:17:10.622Z,43.8
2023-02-11T22:18:54.022Z,43.9
2023-02-11T22:22:20.495Z,43.8
2023-02-11T22:24:03.835Z,43.8
2023-02-11T22:25:47.234Z,43.8
2023-02-11T22:27:30.682Z,43.8
2023-02-11T22:29:14.020Z,43.8
2023-02-11T22:30:57.548Z,43.8
2023-02-11T22:32:40.817Z,43.8
2023-02-11T22:34:24.233Z,43.8
2023-02-11T22:39:33.516Z,43.8
2023-02-11T22:41:16.848Z,43.8
2023-02-11T22:43:00.319Z,43.8
2023-02-11T22:44:43.657Z,43.7
2023-02-11T22:46:27.109Z,43.8
2023-02-11T22:48:10.429Z,43.7
2023-02-11T22:49:53.827Z,43.7
2023-02-11T22:51:37.239Z,43.7
2023-02-11T22:56:46.453Z,43.9
2023-02-11T22:58:29.890Z,43.8
2023-02-11T23:00:13.248Z,43.6
2023-02-11T23:01:56.650Z,43.6
2023-02-11T23:03:40.039Z,43.7
2023-02-11T23:05:23.470Z,43.6
2023-02-11T23:07:06.850Z,43.6
2023-02-11T23:08:50.263Z,43.5
2023-02-11T23:12:16.720Z,43.5
2023-02-11T23:14:00.107Z,43.5
2023-02-11T23:15:43.613Z,43.5
2023-02-11T23:17:26.905Z,43.5
2023-02-11T23:19:10.313Z,43.5
2023-02-11T23:20:54.384Z,43.5
2023-02-11T23:22:37.074Z,43.4
2023-02-11T23:24:20.484Z,43.4
2023-02-11T23:26:03.884Z,43.4
2023-02-11T23:27:47.583Z,43.3
2023-02-11T23:29:31.051Z,43.4
2023-02-11T23:31:14.373Z,43.4
2023-02-11T23:32:57.771Z,43.4
2023-02-11T23:34:41.180Z,43.4
2023-02-11T23:36:24.616Z,43.4
2023-02-11T23:38:07.964Z,43.4
2023-02-11T23:39:51.379Z,43.4
2023-02-11T23:41:34.762Z,43.4
2023-02-11T23:43:18.463Z,43.4
2023-02-11T23:45:01.868Z,43.4
2023-02-11T23:46:45.256Z,43.4
2023-02-11T23:48:28.661Z,43.4
2023-02-11T23:50:12.055Z,43.4
2023-02-11T23:51:55.535Z,43.4
2023-02-11T23:53:38.878Z,43.4
2023-02-11T23:55:22.736Z,43.4
2023-02-11T23:57:05.660Z,43.4
